Milan Army Ammunition Plant, Tennessee
Current Conditions -  °F | °C
As of 11:53 PM on Thursday 30 Oct 2014 (Local Time) from KMKL Reporting Station
Light Rain Light Rain  
Wind Chill: 53°   Ceiling: 7000
Heat Index: 53°   Visibility: 10mi
Dew Point: 48°   Wind: 7mph
Humidity: 83%   Direction: 260°W
Pressure: 30.04"   Gusts: NA
Location:  35.9258°N, 88.7624°W
Report Text: KMKL 310453Z AUTO 26006KT 10SM -RA OVC070 12/09 A3004 RMK AO2 RAB51 SLP170 P0000 T01170089
Loading
Personal Weather Stations






























Interactive Weather Map New forecast layout! Learn more

10-Day Weather Forecast

Advertisements
Track Severe Weather on mobile